Time;durP1;ratioP1;P1;durP2;ratioP2;P2;SDS_P1;SDS_P2;PMS_P1;PMS_P2;Temp;Humidity;BMP_temperature;BMP_pressure;BME280_temperature;BME280_humidity;BME280_pressure;Samples;Min_cycle;Max_cycle;Signal;HPM_P1;HPM_P2
2023/07/21 00:00:15;;;;;;;6.32;3.58;;;15.30;99.90;;;;;;4973723;28;20043;-66
2023/07/21 00:02:41;;;;;;;6.13;3.33;;;15.20;99.90;;;;;;4972593;28;20109;-65
2023/07/21 00:05:08;;;;;;;7.57;3.90;;;15.20;99.90;;;;;;4978568;28;20092;-65
2023/07/21 00:07:35;;;;;;;5.70;3.30;;;15.20;99.90;;;;;;4973720;28;20043;-66
2023/07/21 00:10:08;;;;;;;6.63;3.38;;;15.20;99.90;;;;;;4974167;28;20042;-65
2023/07/21 00:12:35;;;;;;;7.43;3.38;;;15.20;99.90;;;;;;4973156;28;20034;-66
2023/07/21 00:15:02;;;;;;;6.10;3.75;;;15.20;99.90;;;;;;4973198;28;20453;-65
2023/07/21 00:17:30;;;;;;;7.80;3.67;;;15.20;99.90;;;;;;4973650;28;20042;-65
2023/07/21 00:20:10;;;;;;;7.60;3.70;;;15.10;99.90;;;;;;4968705;28;20050;-63
2023/07/21 00:22:40;;;;;;;4.18;3.50;;;15.10;99.90;;;;;;4973529;28;20085;-63
2023/07/21 00:25:07;;;;;;;5.43;3.67;;;15.10;99.90;;;;;;4973039;28;20086;-64
2023/07/21 00:27:34;;;;;;;7.03;3.75;;;15.10;99.90;;;;;;4973801;28;20039;-62
2023/07/21 00:29:59;;;;;;;8.07;4.20;;;15.10;99.90;;;;;;4971472;28;20126;-64
2023/07/21 00:32:25;;;;;;;5.85;3.92;;;15.10;99.90;;;;;;4972907;28;20109;-63
2023/07/21 00:34:52;;;;;;;5.97;3.78;;;15.10;99.90;;;;;;4973147;28;20456;-62
2023/07/21 00:37:17;;;;;;;6.72;3.83;;;15.00;99.90;;;;;;4976324;28;20069;-65
2023/07/21 00:39:44;;;;;;;6.57;4.00;;;15.00;99.90;;;;;;4972498;28;20039;-63
2023/07/21 00:42:13;;;;;;;6.55;3.92;;;15.00;99.90;;;;;;4973131;28;20038;-63
2023/07/21 00:44:39;;;;;;;6.97;3.70;;;15.00;99.90;;;;;;4973359;28;20121;-63
2023/07/21 00:47:05;;;;;;;5.78;3.53;;;14.90;99.90;;;;;;4978861;28;20071;-64
2023/07/21 00:49:32;;;;;;;6.50;3.60;;;14.80;99.90;;;;;;4974213;28;20043;-64
2023/07/21 00:51:58;;;;;;;5.05;3.83;;;14.70;99.90;;;;;;4973107;28;20070;-63
2023/07/21 00:54:24;;;;;;;7.13;3.70;;;14.60;99.90;;;;;;4971037;28;20130;-63
2023/07/21 00:56:49;;;;;;;5.15;3.53;;;14.60;99.90;;;;;;4973025;28;20042;-62
2023/07/21 00:59:17;;;;;;;4.53;3.28;;;14.60;99.90;;;;;;4973031;28;20101;-63
2023/07/21 01:01:42;;;;;;;5.82;3.72;;;14.60;99.90;;;;;;4972172;28;20053;-64
2023/07/21 01:04:08;;;;;;;7.32;3.60;;;14.60;99.90;;;;;;4978142;28;20035;-63
2023/07/21 01:06:37;;;;;;;6.60;3.70;;;14.60;99.90;;;;;;4972578;28;20077;-63
2023/07/21 01:09:06;;;;;;;5.95;3.92;;;14.60;99.90;;;;;;4973090;28;20039;-63
2023/07/21 01:11:33;;;;;;;9.52;4.00;;;14.60;99.90;;;;;;4970170;28;20043;-63
2023/07/21 01:14:02;;;;;;;5.53;3.88;;;14.60;99.90;;;;;;4972843;28;20058;-63
2023/07/21 01:16:28;;;;;;;6.38;3.65;;;14.60;99.90;;;;;;4972982;28;20038;-63
2023/07/21 01:18:56;;;;;;;5.85;4.07;;;14.60;99.90;;;;;;4973190;28;20048;-63
2023/07/21 01:21:41;;;;;;;5.93;3.63;;;14.60;99.90;;;;;;4980259;28;20061;-64
2023/07/21 01:24:31;;;;;;;5.50;4.28;;;14.70;99.90;;;;;;4972981;28;20138;-63
2023/07/21 01:26:57;;;;;;;5.03;4.10;;;14.60;99.90;;;;;;4969779;28;20078;-64
2023/07/21 01:29:23;;;;;;;7.07;4.07;;;14.60;99.90;;;;;;4970881;28;20049;-64
2023/07/21 01:31:51;;;;;;;5.80;3.85;;;14.70;99.90;;;;;;4972953;28;20043;-67
2023/07/21 01:34:18;;;;;;;5.93;3.80;;;14.60;99.90;;;;;;4972901;28;20058;-67
2023/07/21 01:36:44;;;;;;;5.65;3.67;;;14.70;99.90;;;;;;4973709;28;20042;-67
2023/07/21 01:39:10;;;;;;;5.10;3.70;;;14.60;99.90;;;;;;4972013;28;20042;-65
2023/07/21 01:41:37;;;;;;;5.32;3.67;;;14.60;99.90;;;;;;4972756;28;20475;-66
2023/07/21 01:44:03;;;;;;;9.93;4.00;;;14.60;99.90;;;;;;4971911;28;20039;-67
2023/07/21 01:46:29;;;;;;;5.65;3.92;;;14.60;99.90;;;;;;4972443;28;20445;-67
2023/07/21 01:48:55;;;;;;;5.30;3.60;;;14.60;99.90;;;;;;4972364;28;20374;-66
2023/07/21 01:51:22;;;;;;;5.15;3.63;;;14.60;99.90;;;;;;4972715;28;20066;-66
2023/07/21 01:53:56;;;;;;;6.38;3.72;;;14.60;99.90;;;;;;4970330;28;20062;-66
2023/07/21 01:56:31;;;;;;;6.47;3.50;;;14.50;99.90;;;;;;4972088;28;20047;-66
2023/07/21 01:59:02;;;;;;;6.72;3.75;;;14.50;99.90;;;;;;4972531;28;20065;-66
2023/07/21 02:01:29;;;;;;;5.65;3.40;;;14.40;99.90;;;;;;4977119;28;20053;-66
2023/07/21 02:03:54;;;;;;;5.82;4.10;;;14.30;99.90;;;;;;4977710;28;20133;-65
2023/07/21 02:06:20;;;;;;;8.43;4.20;;;14.30;99.90;;;;;;4976287;28;20382;-67
2023/07/21 02:08:46;;;;;;;7.38;4.20;;;14.30;99.90;;;;;;4958920;28;20118;-67
2023/07/21 02:11:12;;;;;;;6.30;4.40;;;14.20;99.90;;;;;;4984551;28;20441;-66
2023/07/21 02:13:39;;;;;;;7.63;4.80;;;14.10;99.90;;;;;;4975847;28;20039;-67
2023/07/21 02:16:05;;;;;;;7.43;5.07;;;14.10;99.90;;;;;;4975093;28;20682;-67
2023/07/21 02:18:33;;;;;;;7.32;5.07;;;14.10;99.90;;;;;;4974983;28;20039;-66
2023/07/21 02:21:02;;;;;;;6.68;4.60;;;14.10;99.90;;;;;;4975718;28;20038;-65
2023/07/21 02:23:28;;;;;;;7.40;4.10;;;14.20;99.90;;;;;;4975967;28;20038;-66
2023/07/21 02:25:54;;;;;;;8.13;4.28;;;14.20;99.90;;;;;;4975291;28;20073;-67
2023/07/21 02:28:20;;;;;;;6.53;4.45;;;14.10;99.90;;;;;;4958910;28;20090;-67
2023/07/21 02:30:46;;;;;;;8.35;4.65;;;14.10;99.90;;;;;;4975630;28;20524;-66
2023/07/21 02:33:12;;;;;;;7.40;5.00;;;14.00;99.90;;;;;;4985718;28;20035;-65
2023/07/21 02:35:37;;;;;;;6.88;4.63;;;14.00;99.90;;;;;;4985292;28;20045;-67
2023/07/21 02:38:05;;;;;;;6.30;4.75;;;14.00;99.90;;;;;;4975848;28;20039;-66
2023/07/21 02:40:31;;;;;;;8.25;5.05;;;14.00;99.90;;;;;;4973310;28;20043;-66
2023/07/21 02:42:57;;;;;;;6.47;4.57;;;14.00;99.90;;;;;;4981797;28;20095;-67
2023/07/21 02:45:22;;;;;;;8.40;4.90;;;14.00;99.90;;;;;;4975418;28;20517;-67
2023/07/21 02:47:48;;;;;;;8.55;4.80;;;14.00;99.90;;;;;;4975703;28;20031;-66
2023/07/21 02:50:15;;;;;;;7.97;5.38;;;14.00;99.90;;;;;;4972624;28;20046;-67
2023/07/21 02:52:42;;;;;;;9.55;5.55;;;14.00;99.90;;;;;;4977398;28;20505;-66
2023/07/21 02:55:08;;;;;;;8.55;4.95;;;13.90;99.90;;;;;;4975514;28;20046;-65
2023/07/21 02:57:34;;;;;;;6.65;5.00;;;13.90;99.90;;;;;;4975350;28;20057;-66
2023/07/21 03:00:03;;;;;;;6.80;5.10;;;13.90;99.90;;;;;;4978469;28;20117;-67
2023/07/21 03:02:29;;;;;;;8.63;5.22;;;13.90;99.90;;;;;;4975144;28;20089;-65
2023/07/21 03:04:55;;;;;;;9.52;5.18;;;14.00;99.90;;;;;;4957855;28;20043;-66
2023/07/21 03:07:20;;;;;;;8.88;5.10;;;14.00;99.90;;;;;;4973371;28;20046;-65
2023/07/21 03:09:46;;;;;;;6.72;5.00;;;14.00;99.90;;;;;;4974866;28;20578;-67
2023/07/21 03:12:12;;;;;;;7.53;5.15;;;14.10;99.90;;;;;;4975367;28;20038;-67
2023/07/21 03:14:37;;;;;;;8.07;5.10;;;14.00;99.90;;;;;;4973799;28;20126;-64
2023/07/21 03:17:03;;;;;;;6.78;4.70;;;14.00;99.90;;;;;;4976300;28;20043;-67
2023/07/21 03:19:30;;;;;;;9.48;4.28;;;14.00;99.90;;;;;;4979564;28;20034;-66
2023/07/21 03:21:56;;;;;;;7.80;5.00;;;13.90;99.90;;;;;;4974889;28;20049;-67
2023/07/21 03:24:22;;;;;;;9.13;4.72;;;13.80;99.90;;;;;;4978735;28;20046;-67
2023/07/21 03:26:49;;;;;;;8.88;5.35;;;13.90;99.90;;;;;;4974576;28;20039;-66
2023/07/21 03:29:15;;;;;;;7.68;5.03;;;13.90;99.90;;;;;;4984394;28;20542;-65
2023/07/21 03:31:41;;;;;;;7.30;4.85;;;13.90;99.90;;;;;;4977428;28;20035;-67
2023/07/21 03:34:06;;;;;;;8.90;5.07;;;13.90;99.90;;;;;;4976593;28;20038;-67
2023/07/21 03:36:32;;;;;;;7.07;5.20;;;13.90;99.90;;;;;;4981310;28;20061;-67
2023/07/21 03:38:58;;;;;;;8.60;5.25;;;13.90;99.90;;;;;;4982630;28;20124;-67
2023/07/21 03:41:23;;;;;;;7.47;5.00;;;13.90;99.90;;;;;;4976032;28;20081;-65
2023/07/21 03:43:49;;;;;;;8.45;5.22;;;13.90;99.90;;;;;;4964892;28;20042;-67
2023/07/21 03:46:15;;;;;;;8.57;5.35;;;13.90;99.90;;;;;;4974651;28;20490;-67
2023/07/21 03:48:42;;;;;;;10.68;5.28;;;14.00;99.90;;;;;;4972181;28;20035;-67
2023/07/21 03:51:08;;;;;;;8.35;5.22;;;14.00;99.90;;;;;;4978688;28;20031;-65
2023/07/21 03:53:34;;;;;;;10.02;5.20;;;13.90;99.90;;;;;;4974472;28;20126;-65
2023/07/21 03:55:59;;;;;;;9.80;5.30;;;13.90;99.90;;;;;;4977019;28;20046;-67
2023/07/21 03:58:25;;;;;;;7.82;5.35;;;14.00;99.90;;;;;;4975090;28;20041;-64
2023/07/21 04:00:51;;;;;;;6.82;4.80;;;14.00;99.90;;;;;;4973821;28;20047;-64
2023/07/21 04:03:17;;;;;;;8.52;4.90;;;14.00;99.90;;;;;;4974370;28;20049;-64
2023/07/21 04:05:43;;;;;;;9.13;4.95;;;14.00;99.90;;;;;;4973788;28;20117;-64
2023/07/21 04:08:09;;;;;;;8.65;5.07;;;13.90;99.90;;;;;;4981676;28;20125;-64
2023/07/21 04:10:40;;;;;;;9.15;5.43;;;14.00;99.90;;;;;;4973517;28;20421;-65
2023/07/21 04:13:06;;;;;;;8.27;4.80;;;13.90;99.90;;;;;;4973732;28;20436;-63
2023/07/21 04:15:32;;;;;;;10.40;5.30;;;14.00;99.90;;;;;;4991306;28;20045;-64
2023/07/21 04:17:57;;;;;;;8.93;5.32;;;14.00;99.90;;;;;;4974391;28;20042;-64
2023/07/21 04:20:23;;;;;;;7.30;5.18;;;14.00;99.90;;;;;;4973632;28;20046;-65
2023/07/21 04:22:50;;;;;;;9.10;4.90;;;14.10;99.90;;;;;;4971356;28;20117;-64
2023/07/21 04:25:17;;;;;;;8.50;4.63;;;14.00;99.90;;;;;;4973122;28;20042;-64
2023/07/21 04:27:45;;;;;;;8.60;4.70;;;14.00;99.90;;;;;;4955754;28;20046;-64
2023/07/21 04:30:11;;;;;;;10.00;4.28;;;14.10;99.90;;;;;;4970992;28;20042;-63
2023/07/21 04:32:39;;;;;;;6.15;4.50;;;14.10;99.90;;;;;;4974888;28;20038;-65
2023/07/21 04:35:08;;;;;;;7.80;4.40;;;14.10;99.90;;;;;;4992297;28;20053;-64
2023/07/21 04:37:34;;;;;;;6.50;4.10;;;14.10;99.90;;;;;;4992753;28;20416;-64
2023/07/21 04:40:00;;;;;;;7.30;4.60;;;14.20;99.90;;;;;;4986630;28;20118;-64
2023/07/21 04:42:26;;;;;;;7.60;4.85;;;14.10;99.90;;;;;;4976932;28;20109;-66
2023/07/21 04:44:52;;;;;;;7.13;4.85;;;14.10;99.90;;;;;;4973003;28;20050;-64
2023/07/21 04:47:18;;;;;;;8.60;5.03;;;14.20;99.90;;;;;;4972330;28;20050;-65
2023/07/21 04:49:44;;;;;;;8.45;4.97;;;14.20;99.90;;;;;;4974071;28;20486;-65
2023/07/21 04:52:09;;;;;;;7.78;4.88;;;14.30;99.90;;;;;;4992686;28;20087;-63
2023/07/21 04:54:37;;;;;;;9.02;4.50;;;14.30;99.90;;;;;;4992837;28;20049;-63
2023/07/21 04:57:03;;;;;;;6.28;4.28;;;14.30;99.90;;;;;;4983199;28;20035;-64
2023/07/21 04:59:29;;;;;;;7.28;4.72;;;14.30;99.90;;;;;;4972273;28;20045;-63
2023/07/21 05:01:54;;;;;;;6.47;4.32;;;14.20;99.90;;;;;;4972269;28;20549;-63
2023/07/21 05:04:20;;;;;;;6.75;4.50;;;14.20;99.90;;;;;;4975092;28;20050;-65
2023/07/21 05:06:47;;;;;;;6.07;4.35;;;14.20;99.90;;;;;;4975918;28;20038;-67
2023/07/21 05:09:14;;;;;;;6.28;4.40;;;14.20;99.90;;;;;;4979963;28;20501;-63
2023/07/21 05:11:40;;;;;;;9.73;4.60;;;14.20;99.90;;;;;;4973050;28;20034;-67
2023/07/21 05:14:06;;;;;;;5.70;4.25;;;14.20;99.90;;;;;;4973964;28;20046;-67
2023/07/21 05:16:32;;;;;;;7.32;4.43;;;14.20;99.90;;;;;;4972698;28;20042;-67
2023/07/21 05:18:58;;;;;;;7.47;5.07;;;14.20;99.90;;;;;;4966638;28;20042;-63
2023/07/21 05:21:24;;;;;;;8.80;5.15;;;14.20;99.90;;;;;;4965291;28;20089;-62
2023/07/21 05:23:49;;;;;;;12.27;4.95;;;14.30;99.90;;;;;;4972951;28;20050;-66
2023/07/21 05:26:16;;;;;;;9.50;5.40;;;14.40;99.90;;;;;;4965122;28;20046;-67
2023/07/21 05:28:41;;;;;;;7.47;4.82;;;14.40;99.90;;;;;;4961198;28;20379;-63
2023/07/21 05:31:11;;;;;;;7.63;5.43;;;14.40;99.90;;;;;;4963595;28;20074;-64
2023/07/21 05:33:36;;;;;;;8.10;5.38;;;14.50;99.90;;;;;;4973137;28;20047;-71
2023/07/21 05:36:05;;;;;;;11.82;5.88;;;14.60;99.90;;;;;;4967720;28;20056;-64
2023/07/21 05:38:32;;;;;;;9.68;5.45;;;14.60;99.90;;;;;;4980771;28;20408;-67
2023/07/21 05:40:58;;;;;;;8.50;5.45;;;14.60;99.90;;;;;;4973469;28;20074;-67
2023/07/21 05:43:24;;;;;;;10.32;5.43;;;14.70;99.90;;;;;;4972557;28;20046;-67
2023/07/21 05:45:50;;;;;;;8.43;5.80;;;14.80;99.90;;;;;;4969228;28;20160;-66
2023/07/21 05:48:15;;;;;;;7.68;5.60;;;14.80;99.90;;;;;;4972219;28;20042;-66
2023/07/21 05:50:41;;;;;;;9.43;6.10;;;14.80;99.90;;;;;;4972816;28;20126;-68
2023/07/21 05:53:07;;;;;;;8.07;5.90;;;14.80;99.90;;;;;;4970833;28;20050;-66
2023/07/21 05:55:32;;;;;;;9.90;6.13;;;14.90;99.90;;;;;;4983989;28;20042;-67
2023/07/21 05:57:58;;;;;;;15.00;6.25;;;15.00;99.90;;;;;;4971927;28;20580;-66
2023/07/21 06:00:25;;;;;;;12.45;6.20;;;15.00;99.90;;;;;;4970112;28;20046;-67
2023/07/21 06:02:51;;;;;;;11.43;6.72;;;15.00;99.90;;;;;;4971818;28;20043;-67
2023/07/21 06:05:17;;;;;;;9.90;6.72;;;15.10;99.90;;;;;;4972162;28;20039;-69
2023/07/21 06:07:44;;;;;;;11.60;6.50;;;15.20;99.90;;;;;;4971321;28;20046;-70
2023/07/21 06:10:10;;;;;;;10.00;6.38;;;15.20;99.90;;;;;;4948396;28;20053;-67
2023/07/21 06:12:36;;;;;;;11.60;6.22;;;15.20;99.90;;;;;;4978396;28;20770;-67
2023/07/21 06:15:02;;;;;;;11.60;6.50;;;15.20;99.90;;;;;;4966321;28;20157;-67
2023/07/21 06:17:28;;;;;;;11.05;7.05;;;15.20;99.90;;;;;;4975643;28;20128;-63
2023/07/21 06:19:54;;;;;;;9.68;6.47;;;15.30;99.90;;;;;;4969140;28;20039;-67
2023/07/21 06:22:19;;;;;;;10.60;7.03;;;15.40;99.90;;;;;;4967263;28;20105;-67
2023/07/21 06:24:45;;;;;;;9.07;6.50;;;15.50;99.90;;;;;;4969393;28;20054;-66
2023/07/21 06:27:12;;;;;;;10.27;5.82;;;15.60;99.90;;;;;;4971098;28;20085;-66
2023/07/21 06:29:38;;;;;;;9.60;6.22;;;15.60;99.90;;;;;;4954015;28;20061;-66
2023/07/21 06:32:04;;;;;;;13.20;5.78;;;15.60;99.90;;;;;;4972259;28;20037;-67
2023/07/21 06:34:29;;;;;;;9.18;5.72;;;15.70;99.90;;;;;;4969905;28;20039;-64
2023/07/21 06:36:55;;;;;;;8.30;5.57;;;15.80;99.90;;;;;;4971336;28;20153;-66
2023/07/21 06:39:22;;;;;;;8.95;5.32;;;15.80;99.90;;;;;;4971554;28;20047;-67
2023/07/21 06:41:48;;;;;;;10.55;4.70;;;15.90;99.90;;;;;;4965084;28;20952;-67
2023/07/21 06:44:14;;;;;;;8.43;4.78;;;16.00;99.90;;;;;;4961328;28;20062;-67
2023/07/21 06:46:44;;;;;;;8.13;4.50;;;16.10;99.90;;;;;;4963149;28;20041;-67
2023/07/21 06:49:10;;;;;;;4.68;3.50;;;16.20;99.90;;;;;;4988843;28;20480;-67
2023/07/21 06:51:36;;;;;;;5.25;3.70;;;16.20;99.90;;;;;;4992962;28;20089;-65
2023/07/21 06:54:03;;;;;;;7.38;4.07;;;16.40;99.90;;;;;;4974528;28;20054;-67
2023/07/21 06:56:30;;;;;;;7.78;4.13;;;16.40;99.90;;;;;;4974983;28;20113;-68
2023/07/21 06:58:55;;;;;;;5.88;3.75;;;16.50;99.90;;;;;;4975114;28;20153;-68
2023/07/21 07:01:21;;;;;;;5.47;3.85;;;16.60;99.90;;;;;;4974090;28;20453;-67
2023/07/21 07:03:47;;;;;;;8.20;4.05;;;16.60;99.90;;;;;;4974768;28;20127;-68
2023/07/21 07:06:12;;;;;;;6.75;3.90;;;16.70;99.90;;;;;;4975657;28;20126;-68
2023/07/21 07:08:38;;;;;;;6.80;4.00;;;16.80;99.90;;;;;;4972755;28;20042;-67
2023/07/21 07:11:03;;;;;;;6.40;4.25;;;16.90;99.90;;;;;;4974163;28;20494;-67
2023/07/21 07:13:29;;;;;;;6.32;4.32;;;17.00;99.90;;;;;;4974173;28;20050;-68
2023/07/21 07:15:55;;;;;;;7.80;4.20;;;17.00;99.90;;;;;;4966895;28;20047;-67
2023/07/21 07:18:21;;;;;;;4.72;4.00;;;17.10;99.90;;;;;;4970525;28;20073;-68
2023/07/21 07:20:51;;;;;;;5.82;3.92;;;17.20;99.90;;;;;;4974505;28;20035;-67
2023/07/21 07:23:18;;;;;;;6.15;3.80;;;17.30;99.90;;;;;;4967382;28;20050;-67
2023/07/21 07:25:52;;;;;;;5.03;3.60;;;17.30;99.90;;;;;;4947405;28;20508;-68
2023/07/21 07:28:19;;;;;;;4.90;3.40;;;17.30;99.90;;;;;;4974550;28;20182;-68
2023/07/21 07:30:46;;;;;;;5.07;3.58;;;17.40;99.90;;;;;;4974668;28;20457;-65
2023/07/21 07:33:14;;;;;;;6.72;3.42;;;17.50;99.90;;;;;;4971406;28;20043;-68
2023/07/21 07:35:47;;;;;;;4.65;2.92;;;17.50;99.90;;;;;;4988535;28;20038;-68
2023/07/21 07:38:13;;;;;;;5.30;3.03;;;17.60;99.90;;;;;;4973915;28;20481;-68
2023/07/21 07:40:39;;;;;;;3.95;2.90;;;17.60;99.90;;;;;;4972723;28;20069;-63
2023/07/21 07:43:04;;;;;;;5.63;2.90;;;17.60;99.90;;;;;;4973806;28;20034;-68
2023/07/21 07:45:31;;;;;;;5.60;3.03;;;17.70;99.90;;;;;;4974510;28;20390;-68
2023/07/21 07:47:56;;;;;;;4.97;2.97;;;17.80;99.90;;;;;;4974593;28;20087;-69
2023/07/21 07:50:22;;;;;;;6.65;3.17;;;17.80;99.90;;;;;;4969572;28;20074;-68
2023/07/21 07:52:49;;;;;;;3.85;2.80;;;17.90;99.90;;;;;;4973591;28;20050;-68
2023/07/21 07:55:15;;;;;;;5.00;3.13;;;17.90;99.90;;;;;;4974473;28;20058;-68
2023/07/21 07:57:41;;;;;;;6.40;3.00;;;17.90;99.90;;;;;;4954876;28;20141;-69
2023/07/21 08:00:08;;;;;;;6.32;2.50;;;18.00;99.90;;;;;;4972904;28;20118;-68
2023/07/21 08:02:34;;;;;;;5.72;3.00;;;18.10;99.90;;;;;;4974188;28;20054;-65
2023/07/21 08:05:00;;;;;;;5.07;2.70;;;18.20;99.90;;;;;;4974103;28;20505;-67
2023/07/21 08:07:26;;;;;;;5.18;3.00;;;18.20;99.90;;;;;;4970709;28;20124;-66
2023/07/21 08:09:51;;;;;;;4.85;2.88;;;18.30;99.90;;;;;;4977913;28;20044;-66
2023/07/21 08:12:17;;;;;;;5.07;2.92;;;18.30;99.90;;;;;;4973791;28;20051;-65
2023/07/21 08:14:43;;;;;;;5.05;3.20;;;18.40;99.90;;;;;;4974175;28;20405;-65
2023/07/21 08:17:09;;;;;;;4.25;3.60;;;18.40;99.90;;;;;;4971084;28;20042;-66
2023/07/21 08:19:34;;;;;;;4.88;3.35;;;18.50;99.90;;;;;;4974381;28;20086;-69
2023/07/21 08:22:06;;;;;;;5.07;4.20;;;18.60;99.90;;;;;;4973265;28;20042;-65
2023/07/21 08:24:33;;;;;;;4.95;3.58;;;18.50;99.90;;;;;;4972254;28;20049;-66
2023/07/21 08:26:59;;;;;;;5.20;3.95;;;18.50;99.90;;;;;;4980240;28;20086;-65
2023/07/21 08:29:26;;;;;;;5.65;3.60;;;18.60;99.90;;;;;;4969238;28;20035;-66
2023/07/21 08:31:52;;;;;;;4.55;3.40;;;18.60;99.90;;;;;;4972991;28;20050;-66
2023/07/21 08:34:17;;;;;;;4.68;3.60;;;18.60;99.90;;;;;;4973305;28;20035;-67
2023/07/21 08:36:43;;;;;;;5.35;3.13;;;18.80;99.90;;;;;;4973333;28;20038;-69
2023/07/21 08:39:08;;;;;;;4.05;3.22;;;18.90;99.90;;;;;;4970808;28;20031;-65
2023/07/21 08:41:44;;;;;;;3.58;2.63;;;18.90;99.90;;;;;;4971020;28;20035;-66
2023/07/21 08:44:11;;;;;;;3.00;2.28;;;18.90;99.90;;;;;;4973304;28;20105;-66
2023/07/21 08:46:37;;;;;;;5.22;3.15;;;19.10;99.90;;;;;;4973280;28;20043;-67
2023/07/21 08:49:05;;;;;;;4.35;3.20;;;19.10;99.90;;;;;;4976254;28;20042;-67
2023/07/21 08:51:31;;;;;;;6.43;3.08;;;19.20;99.90;;;;;;4957051;28;20043;-66
2023/07/21 08:53:56;;;;;;;4.68;3.05;;;19.40;99.90;;;;;;4973276;28;20043;-67
2023/07/21 08:56:22;;;;;;;3.80;2.78;;;19.40;99.90;;;;;;4953954;28;22850;-68
2023/07/21 08:58:47;;;;;;;2.95;2.30;;;19.40;99.90;;;;;;4971914;28;20050;-68
2023/07/21 09:01:13;;;;;;;3.72;2.75;;;19.50;99.90;;;;;;4973163;28;20486;-68
2023/07/21 09:03:45;;;;;;;5.43;2.60;;;19.50;99.90;;;;;;4972982;28;20129;-67
2023/07/21 09:06:13;;;;;;;3.10;2.20;;;19.50;99.90;;;;;;4970588;28;20484;-68
2023/07/21 09:08:38;;;;;;;3.15;2.30;;;19.60;99.90;;;;;;4972657;28;20046;-68
2023/07/21 09:11:04;;;;;;;2.80;2.10;;;19.70;99.90;;;;;;4972703;28;20440;-67
2023/07/21 09:13:31;;;;;;;3.80;2.97;;;19.70;99.90;;;;;;4973090;28;20034;-67
2023/07/21 09:16:00;;;;;;;4.32;2.90;;;19.80;99.90;;;;;;4973438;28;20061;-68
2023/07/21 09:18:30;;;;;;;4.85;2.60;;;19.80;99.90;;;;;;4972400;28;20050;-68
2023/07/21 09:20:57;;;;;;;3.75;2.10;;;19.90;99.90;;;;;;4971746;28;20047;-68
2023/07/21 09:23:23;;;;;;;4.47;2.40;;;20.10;99.90;;;;;;4988219;28;20050;-67
2023/07/21 09:26:02;;;;;;;4.35;2.55;;;20.20;99.90;;;;;;4975019;28;20047;-67
2023/07/21 09:28:44;;;;;;;3.63;2.63;;;20.40;99.90;;;;;;4972541;28;20047;-68
2023/07/21 09:31:11;;;;;;;4.43;2.90;;;20.50;99.90;;;;;;4974372;28;20452;-68
2023/07/21 09:33:42;;;;;;;6.13;3.40;;;20.70;99.90;;;;;;4965202;28;20056;-66
2023/07/21 09:36:07;;;;;;;3.15;2.40;;;21.00;99.90;;;;;;4971472;28;20051;-64
2023/07/21 09:38:35;;;;;;;4.72;2.45;;;21.30;99.90;;;;;;4972515;28;20039;-65
2023/07/21 09:41:05;;;;;;;2.83;2.08;;;21.50;99.90;;;;;;4985397;28;20128;-66
2023/07/21 09:43:31;;;;;;;3.57;2.40;;;21.40;99.90;;;;;;4976026;28;20043;-68
2023/07/21 09:46:02;;;;;;;3.58;2.10;;;21.30;99.90;;;;;;4981767;28;20081;-68
2023/07/21 09:48:31;;;;;;;4.32;2.28;;;21.10;99.90;;;;;;4978877;28;20035;-67
2023/07/21 09:51:02;;;;;;;4.53;2.50;;;21.20;99.90;;;;;;4973444;28;20049;-66
2023/07/21 09:53:34;;;;;;;2.10;1.77;;;20.90;99.90;;;;;;4972256;28;20041;-64
2023/07/21 09:56:01;;;;;;;2.78;2.10;;;21.10;99.90;;;;;;4973467;28;20093;-65
2023/07/21 09:58:29;;;;;;;2.97;1.90;;;21.20;99.20;;;;;;4983173;28;20038;-64
2023/07/21 10:01:03;;;;;;;4.53;2.20;;;21.40;98.80;;;;;;4982021;28;20042;-64
2023/07/21 10:03:34;;;;;;;6.22;2.30;;;21.60;99.10;;;;;;4988189;28;20045;-65
2023/07/21 10:06:00;;;;;;;4.22;2.20;;;21.60;98.30;;;;;;4977770;28;20038;-64
2023/07/21 10:08:31;;;;;;;4.28;2.42;;;21.90;99.10;;;;;;4977045;28;20038;-66
2023/07/21 10:10:58;;;;;;;3.53;2.38;;;21.70;98.10;;;;;;4990249;28;20046;-65
2023/07/21 10:13:26;;;;;;;5.32;2.13;;;21.70;98.90;;;;;;4970149;28;20054;-66
2023/07/21 10:15:51;;;;;;;2.85;2.40;;;21.70;98.60;;;;;;4981877;28;20035;-65
2023/07/21 10:18:18;;;;;;;3.97;2.10;;;21.80;98.50;;;;;;4971135;28;20114;-65
2023/07/21 10:20:51;;;;;;;4.75;2.22;;;22.00;98.50;;;;;;4968656;28;20429;-65
2023/07/21 10:23:34;;;;;;;4.25;1.95;;;22.00;98.40;;;;;;4974223;28;20034;-68
2023/07/21 10:26:04;;;;;;;4.55;2.10;;;22.30;99.50;;;;;;4975751;28;20043;-64
2023/07/21 10:28:35;;;;;;;3.03;2.10;;;22.40;98.70;;;;;;4975919;28;20070;-65
2023/07/21 10:31:25;;;;;;;4.47;2.00;;;22.20;97.70;;;;;;4976438;28;20408;-67
2023/07/21 10:34:09;;;;;;;2.70;1.95;;;22.20;95.40;;;;;;4983947;28;20042;-65
2023/07/21 10:36:53;;;;;;;2.60;2.03;;;22.60;97.50;;;;;;4973000;28;20453;-66
2023/07/21 10:39:26;;;;;;;2.70;2.05;;;22.50;96.00;;;;;;4975099;28;20045;-67
2023/07/21 10:42:00;;;;;;;2.80;2.20;;;22.40;96.70;;;;;;4975628;28;20125;-67
2023/07/21 10:44:37;;;;;;;3.05;2.05;;;22.40;96.70;;;;;;4976013;28;20043;-64
2023/07/21 10:47:03;;;;;;;3.90;1.90;;;22.60;97.10;;;;;;4983002;28;20053;-64
2023/07/21 10:49:29;;;;;;;3.47;2.08;;;22.50;97.60;;;;;;4966557;28;20089;-66
2023/07/21 10:51:54;;;;;;;3.08;1.90;;;22.30;97.30;;;;;;4981756;28;20070;-64
2023/07/21 10:54:20;;;;;;;3.83;2.42;;;22.00;96.30;;;;;;4971754;28;20474;-67
2023/07/21 10:56:51;;;;;;;2.80;2.30;;;22.00;97.00;;;;;;4973381;28;20093;-66
2023/07/21 10:59:18;;;;;;;3.85;2.35;;;21.90;96.40;;;;;;4969769;28;20064;-66
2023/07/21 11:01:46;;;;;;;3.95;2.42;;;21.90;97.20;;;;;;4990782;28;20038;-64
2023/07/21 11:04:14;;;;;;;5.70;2.53;;;21.80;97.40;;;;;;4981688;28;20039;-69
2023/07/21 11:06:44;;;;;;;3.03;2.30;;;21.90;97.30;;;;;;4957299;28;20083;-66
2023/07/21 11:09:14;;;;;;;3.65;2.50;;;22.00;97.00;;;;;;4979428;28;20526;-67
2023/07/21 11:11:44;;;;;;;6.05;3.00;;;22.00;96.60;;;;;;4972501;28;20034;-65
2023/07/21 11:14:12;;;;;;;4.28;2.80;;;22.00;96.00;;;;;;4966051;28;20046;-67
2023/07/21 11:16:43;;;;;;;3.70;2.60;;;22.10;96.20;;;;;;4975417;28;20478;-66
2023/07/21 11:19:09;;;;;;;3.22;2.70;;;22.10;95.80;;;;;;4977740;28;20038;-67
2023/07/21 11:21:35;;;;;;;5.15;3.10;;;22.10;96.10;;;;;;4975831;28;20049;-69
2023/07/21 11:24:00;;;;;;;4.65;2.90;;;22.30;95.90;;;;;;4965251;28;20053;-68
2023/07/21 11:26:26;;;;;;;3.35;2.70;;;22.40;95.50;;;;;;4973492;28;20043;-68
2023/07/21 11:28:52;;;;;;;5.57;3.25;;;22.70;95.50;;;;;;4973686;28;20039;-68
2023/07/21 11:31:18;;;;;;;4.93;3.30;;;22.90;95.00;;;;;;4974531;28;20066;-70
2023/07/21 11:33:45;;;;;;;4.18;2.28;;;22.90;95.20;;;;;;4954119;28;20049;-65
2023/07/21 11:36:15;;;;;;;5.95;3.40;;;23.00;95.50;;;;;;4976909;28;20038;-68
2023/07/21 11:38:41;;;;;;;4.43;3.22;;;22.90;95.40;;;;;;4985928;28;20038;-69
2023/07/21 11:41:07;;;;;;;6.40;3.38;;;22.70;95.40;;;;;;4976478;28;20030;-65
2023/07/21 11:43:53;;;;;;;5.32;3.30;;;22.60;95.30;;;;;;4972581;28;20551;-69
2023/07/21 11:46:25;;;;;;;3.90;3.00;;;22.60;94.90;;;;;;4972886;28;20086;-69
2023/07/21 11:48:51;;;;;;;3.53;2.65;;;22.50;94.60;;;;;;4972908;28;20034;-69
2023/07/21 11:51:17;;;;;;;4.65;3.10;;;22.60;95.00;;;;;;4973348;28;20039;-72
2023/07/21 11:53:47;;;;;;;2.72;2.40;;;22.70;95.00;;;;;;4972046;28;20038;-68
2023/07/21 11:56:14;;;;;;;2.95;2.20;;;22.80;94.10;;;;;;4956775;28;20226;-65
2023/07/21 11:58:41;;;;;;;4.95;2.70;;;22.80;94.00;;;;;;4989301;28;20046;-66
2023/07/21 12:01:07;;;;;;;4.28;2.60;;;22.80;94.30;;;;;;4982825;28;20121;-65
2023/07/21 12:03:36;;;;;;;4.00;2.30;;;22.70;94.20;;;;;;4973948;28;20070;-63
2023/07/21 12:06:03;;;;;;;4.47;2.47;;;22.80;93.60;;;;;;4974135;28;20085;-65
2023/07/21 12:08:30;;;;;;;3.45;2.55;;;22.70;93.50;;;;;;4973962;28;20056;-64
2023/07/21 12:10:58;;;;;;;4.32;2.78;;;22.80;93.60;;;;;;4972181;28;20038;-64
2023/07/21 12:13:24;;;;;;;4.47;2.70;;;22.90;93.50;;;;;;4973204;28;20105;-66
2023/07/21 12:15:50;;;;;;;5.72;3.10;;;23.10;93.70;;;;;;4974018;28;20039;-65
2023/07/21 12:18:17;;;;;;;4.57;2.80;;;23.30;94.20;;;;;;4968679;28;20509;-67
2023/07/21 12:20:43;;;;;;;3.35;2.78;;;23.40;93.60;;;;;;4955553;28;20101;-65
2023/07/21 12:23:08;;;;;;;3.65;2.40;;;23.40;93.90;;;;;;4977176;28;20070;-67
2023/07/21 12:25:34;;;;;;;3.92;2.60;;;23.20;92.80;;;;;;4972895;28;20556;-65
2023/07/21 12:28:00;;;;;;;2.90;2.00;;;23.20;92.40;;;;;;4964511;28;20042;-65
2023/07/21 12:30:27;;;;;;;4.18;2.10;;;23.20;92.80;;;;;;4972239;28;20085;-65
2023/07/21 12:32:53;;;;;;;2.03;1.70;;;23.20;92.10;;;;;;4971889;28;20038;-66
2023/07/21 12:35:18;;;;;;;2.58;1.80;;;23.20;91.30;;;;;;4981415;28;20441;-67
2023/07/21 12:37:44;;;;;;;2.25;1.80;;;23.20;90.80;;;;;;4958401;28;20049;-68
2023/07/21 12:40:13;;;;;;;2.60;1.90;;;23.30;90.50;;;;;;4973552;28;20042;-67
2023/07/21 12:42:39;;;;;;;2.50;1.80;;;23.50;91.10;;;;;;4971492;28;20043;-68
2023/07/21 12:45:06;;;;;;;4.00;1.80;;;23.60;89.90;;;;;;4972428;28;20073;-65